createdAt,value
2019-05-09T00:02:10.726Z,0.40
2019-05-09T00:04:41.094Z,0.37
2019-05-09T00:07:11.420Z,0.40
2019-05-09T00:09:43.963Z,0.40
2019-05-09T00:12:14.342Z,0.20
2019-05-09T00:14:44.794Z,0.20
2019-05-09T00:17:15.111Z,0.20
2019-05-09T00:19:45.482Z,0.60
2019-05-09T00:22:15.812Z,0.20
2019-05-09T00:24:46.148Z,0.30
2019-05-09T00:27:16.508Z,0.20
2019-05-09T00:29:48.723Z,0.10
2019-05-09T00:32:44.020Z,0.20
2019-05-09T00:35:36.808Z,0.10
2019-05-09T00:38:10.555Z,0.20
2019-05-09T00:40:53.052Z,0.33
2019-05-09T00:43:13.255Z,0.15
2019-05-09T00:46:05.669Z,0.10
2019-05-09T00:48:43.890Z,0.20
2019-05-09T00:51:14.205Z,0.10
2019-05-09T00:53:44.554Z,0.10
2019-05-09T00:56:14.902Z,0.10
2019-05-09T00:58:45.234Z,0.10
2019-05-09T01:01:15.525Z,0.00
2019-05-09T01:03:45.880Z,0.10
2019-05-09T01:06:16.547Z,0.03
2019-05-09T01:08:46.846Z,0.10
2019-05-09T01:11:17.161Z,0.00
2019-05-09T01:13:47.519Z,0.10
2019-05-09T01:16:17.815Z,0.10
2019-05-09T01:18:48.114Z,0.10
2019-05-09T01:21:18.508Z,0.45
2019-05-09T01:23:48.847Z,0.20
2019-05-09T01:26:19.217Z,0.10
2019-05-09T01:28:49.562Z,0.10
2019-05-09T01:31:19.960Z,0.10
2019-05-09T01:33:58.268Z,0.10
2019-05-09T01:36:47.506Z,0.10
2019-05-09T01:39:17.865Z,0.10
2019-05-09T01:41:48.172Z,0.72
2019-05-09T01:44:18.514Z,0.20
2019-05-09T01:46:48.885Z,0.20
2019-05-09T01:49:19.265Z,0.30
2019-05-09T01:51:49.558Z,0.55
2019-05-09T01:54:23.598Z,0.10
2019-05-09T01:56:53.866Z,0.10
2019-05-09T01:59:24.600Z,0.10
2019-05-09T02:01:55.005Z,0.10
2019-05-09T02:04:25.322Z,0.20
2019-05-09T02:06:55.736Z,0.10
2019-05-09T02:09:26.142Z,0.10
2019-05-09T02:11:56.489Z,0.20
2019-05-09T02:14:43.702Z,0.40
2019-05-09T02:17:33.511Z,0.10
2019-05-09T02:20:04.292Z,0.10
2019-05-09T02:22:34.945Z,0.10
2019-05-09T02:25:07.190Z,0.10
2019-05-09T02:27:37.523Z,0.10
2019-05-09T02:30:09.392Z,0.10
2019-05-09T02:32:39.739Z,0.20
2019-05-09T02:35:10.910Z,0.30
2019-05-09T02:37:41.276Z,0.10
2019-05-09T02:40:11.702Z,0.10
2019-05-09T02:42:42.041Z,0.10
2019-05-09T02:45:12.512Z,0.68
2019-05-09T02:47:42.846Z,0.20
2019-05-09T02:50:14.247Z,0.10
2019-05-09T02:52:44.561Z,0.10
2019-05-09T02:55:14.977Z,0.20
2019-05-09T02:57:48.904Z,0.10
2019-05-09T03:00:39.638Z,0.10
2019-05-09T03:03:19.541Z,0.10
2019-05-09T03:05:48.961Z,0.10
2019-05-09T03:08:19.593Z,0.10
2019-05-09T03:10:50.013Z,0.10
2019-05-09T03:13:20.741Z,1.35
2019-05-09T03:15:52.860Z,0.10
2019-05-09T03:18:23.170Z,0.15
2019-05-09T03:21:09.299Z,0.10
2019-05-09T03:23:40.008Z,0.10
2019-05-09T03:26:12.000Z,0.10
2019-05-09T03:29:08.838Z,0.28
2019-05-09T03:31:40.122Z,0.10
2019-05-09T03:34:10.482Z,0.10
2019-05-09T03:36:40.865Z,0.20
2019-05-09T03:39:11.170Z,0.20
2019-05-09T03:41:41.479Z,0.10
2019-05-09T03:44:11.796Z,0.10
2019-05-09T03:47:00.488Z,0.30
2019-05-09T03:49:30.878Z,0.40
2019-05-09T03:52:01.237Z,0.20
2019-05-09T03:54:31.609Z,0.20
2019-05-09T03:57:08.339Z,0.20
2019-05-09T03:59:38.675Z,0.30
2019-05-09T04:02:10.317Z,0.10
2019-05-09T04:04:40.914Z,0.10
2019-05-09T04:07:11.232Z,0.20
2019-05-09T04:09:41.579Z,0.20
2019-05-09T04:12:11.915Z,0.20
2019-05-09T04:14:42.274Z,1.00
2019-05-09T04:17:13.116Z,0.23
2019-05-09T04:19:43.496Z,0.30
2019-05-09T04:22:13.847Z,0.40
2019-05-09T04:24:44.184Z,0.20
2019-05-09T04:27:21.980Z,0.30
2019-05-09T04:29:52.316Z,0.30
2019-05-09T04:32:22.620Z,0.40
2019-05-09T04:34:53.021Z,0.37
2019-05-09T04:37:23.453Z,0.60
2019-05-09T04:39:58.419Z,0.93
2019-05-09T04:42:25.801Z,0.55
2019-05-09T04:45:03.517Z,0.80
2019-05-09T04:47:33.765Z,1.10
2019-05-09T04:50:07.444Z,1.40
2019-05-09T04:52:39.853Z,1.85
2019-05-09T04:55:11.033Z,1.65
2019-05-09T04:57:41.322Z,2.85
2019-05-09T05:00:13.293Z,1.55
2019-05-09T05:02:49.157Z,2.30
2019-05-09T05:05:19.507Z,1.90
2019-05-09T05:07:49.862Z,2.75
2019-05-09T05:10:20.186Z,2.92
2019-05-09T05:12:50.869Z,1.82
2019-05-09T05:15:21.234Z,2.75
2019-05-09T05:17:51.634Z,3.62
2019-05-09T05:20:24.890Z,3.33
2019-05-09T05:23:04.317Z,3.22
2019-05-09T05:25:34.682Z,2.87
2019-05-09T05:28:05.015Z,2.45
2019-05-09T05:30:37.391Z,2.87
2019-05-09T05:33:28.673Z,2.60
2019-05-09T05:36:01.122Z,2.80
2019-05-09T05:38:31.481Z,3.45
2019-05-09T05:41:01.840Z,3.10
2019-05-09T05:43:42.672Z,2.83
2019-05-09T05:46:23.347Z,3.17
2019-05-09T05:48:54.692Z,2.02
2019-05-09T05:51:25.019Z,1.98
2019-05-09T05:53:57.356Z,2.08
2019-05-09T05:56:28.095Z,2.27
2019-05-09T05:58:58.439Z,1.25
2019-05-09T06:01:28.839Z,2.80
2019-05-09T06:03:59.174Z,1.80
2019-05-09T06:06:32.825Z,1.35
2019-05-09T06:09:01.753Z,1.35
2019-05-09T06:11:32.147Z,1.57
2019-05-09T06:14:08.718Z,1.12
2019-05-09T06:16:37.718Z,0.60
2019-05-09T06:19:08.930Z,0.47
2019-05-09T06:21:39.599Z,0.95
2019-05-09T06:24:10.492Z,0.50
2019-05-09T06:26:40.816Z,0.75
2019-05-09T06:29:11.176Z,0.70
2019-05-09T06:31:41.524Z,0.30
2019-05-09T06:34:11.869Z,0.62
2019-05-09T06:36:42.251Z,0.45
2019-05-09T06:39:12.679Z,0.60
2019-05-09T06:41:43.395Z,0.33
2019-05-09T06:44:31.990Z,0.62
2019-05-09T06:47:18.544Z,0.78
2019-05-09T06:49:52.288Z,0.20
2019-05-09T06:52:22.898Z,0.60
2019-05-09T06:54:53.197Z,0.57
2019-05-09T06:57:23.677Z,0.30
2019-05-09T06:59:54.012Z,0.20
2019-05-09T07:02:31.533Z,0.40
2019-05-09T07:05:07.714Z,0.45
2019-05-09T07:07:48.154Z,0.47
2019-05-09T07:10:18.542Z,0.35
2019-05-09T07:12:48.864Z,0.30
2019-05-09T07:15:19.208Z,0.30
2019-05-09T07:17:49.514Z,0.68
2019-05-09T07:20:19.889Z,8.53
2019-05-09T07:22:53.288Z,0.40
2019-05-09T07:25:33.397Z,0.70
2019-05-09T07:28:03.725Z,0.70
2019-05-09T07:30:49.278Z,0.10
2019-05-09T07:33:53.656Z,0.37
2019-05-09T07:36:23.968Z,0.47
2019-05-09T07:38:54.449Z,0.20
2019-05-09T07:41:25.064Z,0.10
2019-05-09T07:43:55.376Z,0.20
2019-05-09T07:46:29.061Z,0.25
2019-05-09T07:49:01.153Z,0.20
2019-05-09T07:51:31.512Z,0.10
2019-05-09T07:54:16.319Z,0.30
2019-05-09T07:56:34.152Z,0.13
2019-05-09T07:59:04.536Z,0.10
2019-05-09T08:01:34.924Z,0.20
2019-05-09T08:04:06.916Z,0.33
2019-05-09T08:06:38.075Z,0.17
2019-05-09T08:09:08.967Z,0.40
2019-05-09T08:11:39.365Z,0.10
2019-05-09T08:14:10.928Z,0.17
2019-05-09T08:16:41.424Z,0.20
2019-05-09T08:19:11.755Z,0.30
2019-05-09T08:21:42.206Z,0.33
2019-05-09T08:24:12.606Z,0.30
2019-05-09T08:26:43.018Z,0.10
2019-05-09T08:29:13.531Z,0.20
2019-05-09T08:31:45.614Z,0.17
2019-05-09T08:34:18.537Z,0.20
2019-05-09T08:36:48.308Z,0.10
2019-05-09T08:39:20.549Z,0.40
2019-05-09T08:41:50.925Z,0.57
2019-05-09T08:44:21.374Z,0.10
2019-05-09T08:46:51.707Z,0.10
2019-05-09T08:49:28.543Z,0.10
2019-05-09T08:52:12.698Z,0.10
2019-05-09T08:54:54.018Z,0.35
2019-05-09T08:57:24.396Z,0.10
2019-05-09T08:59:54.759Z,0.10
2019-05-09T09:02:25.127Z,0.35
2019-05-09T09:04:57.990Z,0.20
2019-05-09T09:07:29.713Z,0.10
2019-05-09T09:09:59.632Z,0.10
2019-05-09T09:12:34.099Z,0.10
2019-05-09T09:15:02.111Z,0.20
2019-05-09T09:17:32.643Z,0.30
2019-05-09T09:20:03.001Z,0.10
2019-05-09T09:22:33.460Z,0.20
2019-05-09T09:25:04.087Z,0.10
2019-05-09T09:27:34.439Z,0.20
2019-05-09T09:30:17.684Z,0.10
2019-05-09T09:32:38.704Z,0.10
2019-05-09T09:35:09.583Z,0.10
2019-05-09T09:37:48.437Z,0.30
2019-05-09T09:40:12.805Z,0.10
2019-05-09T09:42:43.150Z,0.17
2019-05-09T09:45:14.994Z,0.13
2019-05-09T09:47:47.980Z,0.10
2019-05-09T09:50:17.859Z,0.20
2019-05-09T09:52:49.333Z,0.10
2019-05-09T09:55:19.726Z,0.05
2019-05-09T09:57:50.091Z,0.33
2019-05-09T10:01:02.969Z,0.10
2019-05-09T10:03:32.463Z,0.10
2019-05-09T10:06:02.809Z,0.10
2019-05-09T10:08:33.821Z,0.10
2019-05-09T10:11:04.155Z,0.10
2019-05-09T10:13:34.556Z,0.30
2019-05-09T10:16:28.725Z,0.10
2019-05-09T10:19:02.788Z,0.10
2019-05-09T10:21:38.231Z,0.10
2019-05-09T10:24:09.229Z,0.10
2019-05-09T10:26:59.038Z,0.33
2019-05-09T10:29:29.796Z,0.20
2019-05-09T10:32:00.112Z,0.20
2019-05-09T10:34:30.508Z,0.30
2019-05-09T10:37:00.883Z,0.10
2019-05-09T10:39:31.337Z,0.20
2019-05-09T10:42:03.898Z,0.30
2019-05-09T10:44:43.612Z,0.20
2019-05-09T10:47:32.905Z,0.53
2019-05-09T10:50:03.530Z,0.10
2019-05-09T10:52:34.102Z,0.37
2019-05-09T10:55:04.566Z,0.10
2019-05-09T10:57:34.983Z,0.15
2019-05-09T11:00:08.500Z,0.30
2019-05-09T11:02:38.264Z,0.10
2019-05-09T11:05:08.816Z,0.20
2019-05-09T11:07:39.140Z,0.25
2019-05-09T11:10:24.427Z,0.40
2019-05-09T11:12:41.625Z,0.40
2019-05-09T11:15:12.671Z,0.25
2019-05-09T11:17:43.201Z,0.20
2019-05-09T11:20:13.624Z,0.40
2019-05-09T11:22:43.943Z,0.20
2019-05-09T11:25:14.362Z,0.30
2019-05-09T11:27:44.685Z,0.50
2019-05-09T11:30:15.014Z,0.50
2019-05-09T11:32:45.395Z,0.50
2019-05-09T11:35:17.645Z,0.45
2019-05-09T11:37:48.131Z,0.37
2019-05-09T11:40:18.761Z,0.42
2019-05-09T11:42:49.261Z,0.40
2019-05-09T11:45:19.561Z,0.40
2019-05-09T11:47:50.045Z,0.42
2019-05-09T11:50:23.165Z,0.40
2019-05-09T11:52:52.471Z,0.50
2019-05-09T11:55:33.828Z,0.62
2019-05-09T11:58:13.958Z,0.60
2019-05-09T12:00:44.296Z,0.45
2019-05-09T12:03:14.845Z,0.30
2019-05-09T12:05:47.644Z,0.53
2019-05-09T12:08:17.825Z,0.98
2019-05-09T12:10:48.992Z,0.30
2019-05-09T12:13:19.423Z,0.30
2019-05-09T12:15:49.773Z,0.30
2019-05-09T12:18:20.086Z,0.35
2019-05-09T12:20:50.502Z,0.40
2019-05-09T12:23:20.817Z,0.30
2019-05-09T12:25:51.128Z,0.72
2019-05-09T12:28:21.465Z,0.70
2019-05-09T12:30:51.801Z,0.78
2019-05-09T12:33:22.138Z,0.85
2019-05-09T12:35:52.480Z,0.88
2019-05-09T12:38:22.785Z,0.60
2019-05-09T12:40:53.094Z,0.65
2019-05-09T12:43:23.441Z,1.17
2019-05-09T12:45:54.024Z,1.30
2019-05-09T12:48:24.390Z,2.20
2019-05-09T12:50:54.805Z,1.27
2019-05-09T12:53:27.384Z,0.95
2019-05-09T12:56:00.585Z,1.32
2019-05-09T12:58:32.042Z,2.33
2019-05-09T13:01:02.469Z,2.25
2019-05-09T13:03:32.792Z,1.95
2019-05-09T13:06:03.138Z,1.12
2019-05-09T13:08:33.482Z,1.45
2019-05-09T13:11:03.821Z,1.72
2019-05-09T13:13:34.150Z,1.00
2019-05-09T13:16:43.522Z,1.07
2019-05-09T13:19:08.628Z,0.85
2019-05-09T13:21:39.271Z,0.82
2019-05-09T13:24:09.632Z,0.78
2019-05-09T13:26:40.103Z,0.78
2019-05-09T13:29:10.745Z,1.20
2019-05-09T13:31:41.419Z,1.45
2019-05-09T13:34:11.714Z,1.60
2019-05-09T13:36:42.070Z,2.08
2019-05-09T13:39:12.439Z,1.85
2019-05-09T13:41:42.763Z,1.80
2019-05-09T13:44:14.023Z,2.00
2019-05-09T13:46:44.609Z,1.22
2019-05-09T13:49:15.712Z,1.47
2019-05-09T13:51:55.106Z,1.12
2019-05-09T13:54:18.994Z,0.95
2019-05-09T13:56:55.100Z,1.22
2019-05-09T13:59:21.547Z,1.07
2019-05-09T14:01:51.954Z,1.02
2019-05-09T14:04:22.483Z,1.57
2019-05-09T14:06:52.926Z,1.57
2019-05-09T14:09:23.703Z,2.27
2019-05-09T14:11:54.333Z,1.62
2019-05-09T14:14:24.848Z,0.40
2019-05-09T14:16:55.622Z,0.15
2019-05-09T14:19:39.946Z,0.20
2019-05-09T14:21:59.032Z,0.57
2019-05-09T14:24:29.634Z,0.10
2019-05-09T14:27:00.297Z,0.03
2019-05-09T14:29:32.157Z,0.00
2019-05-09T14:32:05.245Z,0.00
2019-05-09T14:34:38.147Z,0.00
2019-05-09T14:37:09.661Z,0.03
2019-05-09T14:39:54.973Z,0.10
2019-05-09T14:42:13.192Z,0.10
2019-05-09T14:44:44.634Z,0.10
2019-05-09T14:47:17.738Z,0.23
2019-05-09T14:49:50.423Z,0.10
2019-05-09T14:52:21.467Z,0.10
2019-05-09T14:54:52.168Z,0.10
2019-05-09T14:57:22.832Z,0.05
2019-05-09T14:59:53.223Z,0.10
2019-05-09T15:02:24.198Z,0.10
2019-05-09T15:05:12.102Z,0.10
2019-05-09T15:07:42.623Z,0.20
2019-05-09T15:10:13.468Z,0.20
2019-05-09T15:12:44.183Z,0.10
2019-05-09T15:15:14.704Z,0.30
2019-05-09T15:17:45.373Z,0.20
2019-05-09T15:20:18.014Z,0.20
2019-05-09T15:22:48.371Z,0.30
2019-05-09T15:25:20.748Z,0.45
2019-05-09T15:27:51.508Z,0.35
2019-05-09T15:30:22.023Z,0.30
2019-05-09T15:32:52.538Z,0.10
2019-05-09T15:35:23.027Z,0.72
2019-05-09T15:37:53.649Z,0.30
2019-05-09T15:40:24.230Z,0.33
2019-05-09T15:42:54.618Z,0.50
2019-05-09T15:45:28.572Z,0.62
2019-05-09T15:47:58.650Z,0.42
2019-05-09T15:50:29.087Z,0.47
2019-05-09T15:52:59.762Z,0.53
2019-05-09T15:55:30.137Z,1.07
2019-05-09T15:58:00.491Z,0.60
2019-05-09T16:00:30.806Z,1.45
2019-05-09T16:03:01.286Z,1.45
2019-05-09T16:05:31.940Z,1.05
2019-05-09T16:08:08.433Z,0.90
2019-05-09T16:10:37.629Z,2.00
2019-05-09T16:13:08.223Z,1.10
2019-05-09T16:15:38.778Z,1.50
2019-05-09T16:18:09.139Z,1.30
2019-05-09T16:20:41.185Z,1.35
2019-05-09T16:23:11.582Z,1.57
2019-05-09T16:25:41.983Z,1.10
2019-05-09T16:28:12.269Z,1.10
2019-05-09T16:30:42.579Z,1.00
2019-05-09T16:33:12.956Z,0.60
2019-05-09T16:35:43.328Z,1.10
2019-05-09T16:38:13.996Z,0.75
2019-05-09T16:40:47.746Z,0.80
2019-05-09T16:43:17.884Z,1.17
2019-05-09T16:45:48.723Z,1.37
2019-05-09T16:48:19.109Z,1.17
2019-05-09T16:51:00.439Z,0.80
2019-05-09T16:53:21.561Z,2.72
2019-05-09T16:55:52.067Z,0.60
2019-05-09T16:58:22.399Z,1.00
2019-05-09T17:00:53.573Z,1.27
2019-05-09T17:03:23.902Z,0.90
2019-05-09T17:05:54.288Z,1.65
2019-05-09T17:08:24.680Z,1.45
2019-05-09T17:10:55.207Z,2.10
2019-05-09T17:13:29.026Z,1.32
2019-05-09T17:15:59.793Z,1.52
2019-05-09T17:18:30.290Z,1.42
2019-05-09T17:21:18.511Z,1.77
2019-05-09T17:23:44.679Z,1.15
2019-05-09T17:26:17.445Z,1.00
2019-05-09T17:28:48.470Z,1.32
2019-05-09T17:31:19.240Z,1.80
2019-05-09T17:33:49.657Z,1.17
2019-05-09T17:36:20.177Z,0.78
2019-05-09T17:38:50.586Z,0.60
2019-05-09T17:41:20.916Z,1.10
2019-05-09T17:43:51.263Z,1.02
2019-05-09T17:46:24.474Z,1.95
2019-05-09T17:48:53.741Z,1.35
2019-05-09T17:51:33.073Z,0.72
2019-05-09T17:53:58.338Z,0.70
2019-05-09T17:56:28.737Z,1.32
2019-05-09T17:58:59.054Z,1.77
2019-05-09T18:01:29.496Z,0.60
2019-05-09T18:03:59.840Z,1.77
2019-05-09T18:06:30.212Z,1.05
2019-05-09T18:09:00.586Z,1.00
2019-05-09T18:11:30.954Z,1.22
2019-05-09T18:14:01.286Z,1.02
2019-05-09T18:16:31.672Z,1.42
2019-05-09T18:19:02.471Z,0.90
2019-05-09T18:21:46.533Z,1.90
2019-05-09T18:24:05.018Z,0.72
2019-05-09T18:26:35.427Z,0.80
2019-05-09T18:29:05.816Z,0.70
2019-05-09T18:31:58.382Z,0.55
2019-05-09T18:34:28.849Z,0.47
2019-05-09T18:36:59.372Z,0.60
2019-05-09T18:39:29.773Z,0.70
2019-05-09T18:42:00.128Z,0.45
2019-05-09T18:44:30.638Z,0.68
2019-05-09T18:47:01.258Z,0.80
2019-05-09T18:49:31.667Z,0.57
2019-05-09T18:52:04.190Z,0.30
2019-05-09T18:54:34.304Z,1.00
2019-05-09T18:57:04.959Z,0.53
2019-05-09T18:59:35.427Z,0.53
2019-05-09T19:02:05.972Z,0.42
2019-05-09T19:04:36.388Z,0.30
2019-05-09T19:07:21.141Z,0.30
2019-05-09T19:09:38.969Z,0.37
2019-05-09T19:12:09.364Z,0.60
2019-05-09T19:14:39.785Z,0.40
2019-05-09T19:17:29.130Z,0.60
2019-05-09T19:20:12.171Z,0.40
2019-05-09T19:22:42.720Z,0.42
2019-05-09T19:25:13.323Z,0.65
2019-05-09T19:27:47.342Z,1.00
2019-05-09T19:30:17.835Z,0.70
2019-05-09T19:32:48.316Z,0.55
2019-05-09T19:35:18.773Z,0.50
2019-05-09T19:37:49.215Z,0.50
2019-05-09T19:40:20.369Z,0.40
2019-05-09T19:42:51.049Z,0.33
2019-05-09T19:45:21.372Z,0.37
2019-05-09T19:47:51.978Z,0.98
2019-05-09T19:50:22.445Z,0.55
2019-05-09T19:52:53.007Z,0.62
2019-05-09T19:55:23.500Z,1.10
2019-05-09T19:57:53.940Z,0.45
2019-05-09T20:00:24.401Z,1.37
2019-05-09T20:02:54.814Z,0.70
2019-05-09T20:05:25.350Z,0.75
2019-05-09T20:07:55.812Z,0.55
2019-05-09T20:10:43.766Z,0.98
2019-05-09T20:13:31.705Z,1.42
2019-05-09T20:16:02.133Z,0.55
2019-05-09T20:18:32.541Z,1.12
2019-05-09T20:21:02.875Z,1.07
2019-05-09T20:23:33.176Z,1.40
2019-05-09T20:26:03.877Z,1.07
2019-05-09T20:28:34.161Z,1.20
2019-05-09T20:31:04.512Z,1.55
2019-05-09T20:33:34.941Z,1.50
2019-05-09T20:36:05.251Z,1.30
2019-05-09T20:38:35.844Z,1.15
2019-05-09T20:41:06.320Z,1.87
2019-05-09T20:43:36.819Z,0.93
2019-05-09T20:46:10.245Z,0.90
2019-05-09T20:48:39.564Z,1.12
2019-05-09T20:51:10.079Z,1.72
2019-05-09T20:53:40.740Z,0.95
2019-05-09T20:56:11.304Z,1.07
2019-05-09T20:58:41.821Z,1.30
2019-05-09T21:01:12.358Z,0.85
2019-05-09T21:03:57.783Z,0.95
2019-05-09T21:06:15.231Z,0.85
2019-05-09T21:08:45.780Z,1.12
2019-05-09T21:11:16.315Z,1.75
2019-05-09T21:13:48.791Z,1.35
2019-05-09T21:16:19.114Z,1.62
2019-05-09T21:18:49.600Z,1.27
2019-05-09T21:21:20.106Z,1.57
2019-05-09T21:23:50.661Z,1.27
2019-05-09T21:26:21.156Z,1.55
2019-05-09T21:28:51.643Z,1.85
2019-05-09T21:31:22.259Z,1.77
2019-05-09T21:33:52.888Z,2.08
2019-05-09T21:36:23.221Z,1.47
2019-05-09T21:38:53.592Z,2.50
2019-05-09T21:41:23.959Z,2.77
2019-05-09T21:43:54.389Z,2.62
2019-05-09T21:46:24.719Z,1.75
2019-05-09T21:48:55.077Z,2.70
2019-05-09T21:51:25.423Z,3.90
2019-05-09T21:53:55.976Z,3.52
2019-05-09T21:56:26.321Z,4.45
2019-05-09T21:58:56.621Z,4.33
2019-05-09T22:01:27.252Z,4.70
2019-05-09T22:03:58.225Z,5.55
2019-05-09T22:06:28.554Z,6.70
2019-05-09T22:08:58.879Z,5.67
2019-05-09T22:11:29.190Z,7.75
2019-05-09T22:14:14.745Z,9.15
2019-05-09T22:16:51.851Z,7.78
2019-05-09T22:19:22.302Z,8.88
2019-05-09T22:21:52.681Z,9.20
2019-05-09T22:24:23.021Z,10.10
2019-05-09T22:26:53.370Z,10.80
2019-05-09T22:29:23.718Z,9.28
2019-05-09T22:31:54.143Z,11.93
2019-05-09T22:34:24.483Z,10.48
2019-05-09T22:36:54.874Z,12.15
2019-05-09T22:39:25.194Z,12.33
2019-05-09T22:41:55.532Z,13.10
2019-05-09T22:44:25.841Z,14.40
2019-05-09T22:46:56.169Z,13.88
2019-05-09T22:49:26.580Z,13.50
2019-05-09T22:51:56.899Z,17.87
2019-05-09T22:54:27.213Z,14.15
2019-05-09T22:56:57.561Z,12.00
2019-05-09T22:59:27.920Z,12.70
2019-05-09T23:01:58.228Z,15.53
2019-05-09T23:04:28.559Z,16.02
2019-05-09T23:06:58.845Z,12.75
2019-05-09T23:09:29.332Z,15.93
2019-05-09T23:11:59.742Z,13.62
2019-05-09T23:14:30.096Z,15.98
2019-05-09T23:17:00.773Z,16.20
2019-05-09T23:19:31.187Z,16.85
2019-05-09T23:22:01.510Z,11.48
2019-05-09T23:24:33.351Z,13.88
2019-05-09T23:27:03.675Z,13.40
2019-05-09T23:29:34.085Z,14.50
2019-05-09T23:32:20.008Z,12.47
2019-05-09T23:34:50.366Z,13.83
2019-05-09T23:37:20.978Z,15.28
2019-05-09T23:39:51.411Z,14.03
2019-05-09T23:42:21.775Z,13.98
2019-05-09T23:44:52.091Z,11.85
2019-05-09T23:47:22.430Z,10.75
2019-05-09T23:49:52.743Z,11.90
2019-05-09T23:52:23.111Z,13.45
2019-05-09T23:55:11.412Z,13.70
2019-05-09T23:57:59.420Z,15.08
